Current | Forecast
Updated: 3:15 PM CEST on June 26, 2017
Observed at Papa, Hungary
Temperature 27°C
Humidity 42%
Dew Point 13°C
Wind West at 11 km/h
Pressure 1013 hPa (Steady)
Conditions Clear
Visibility -
UV N/A
Clouds
Yesterday's Maximum 29°C
Yesterday's Minimum 19°C approx.
Yesterday's Cooling Degree Days 10 approx.
Sunrise4:57 AM CEST
Sunset8:51 PM CEST
Moon Rise7:41 AM CEST
Moon Set10:43 PM CEST
Moon PhaseMoon Phase
Waxing Crescent
Raw METARMETAR LHPA 261315Z 26006KT 190V010 CAVOK 27/13 Q1013 NOSIG RMK BLU


Monday
. High: 66° F.
Tuesday
. High: 75° F.
Wednesday
. High: 80° F.
Thursday
. High: 73° F.
Friday
. High: 66° F.
Saturday
. High: 73° F.
Sunday
. High: 80° F.
Monday
. High: 69° F.

Units: English | Metric

Find the Weather for any City, State or Zipcode, or Country:

U.S. State List | Severe Weather | Tropical Storms | Ski Conditions
United States | Canada | Central America | South America | Asia | Europe | Australia | Africa | Islands

Weather Underground

© Copyright 2017
The Weather Company, LLC